createdAt,value
2023-01-28T00:00:05.781Z,10.10
2023-01-28T00:05:14.651Z,9.75
2023-01-28T00:10:22.750Z,9.43
2023-01-28T00:15:31.387Z,9.67
2023-01-28T00:20:40.458Z,9.76
2023-01-28T00:25:49.250Z,8.82
2023-01-28T00:30:57.915Z,9.59
2023-01-28T00:36:06.366Z,9.76
2023-01-28T00:41:15.335Z,9.83
2023-01-28T00:46:23.990Z,9.94
2023-01-28T00:51:33.229Z,9.25
2023-01-28T00:56:42.412Z,9.52
2023-01-28T01:01:51.568Z,9.29
2023-01-28T01:07:00.219Z,9.80
2023-01-28T01:12:09.304Z,9.64
2023-01-28T01:17:17.559Z,9.43
2023-01-28T01:22:26.286Z,9.69
2023-01-28T01:27:34.510Z,9.84
2023-01-28T01:32:43.004Z,9.79
2023-01-28T01:37:52.267Z,9.96
2023-01-28T01:43:01.188Z,10.22
2023-01-28T01:48:09.811Z,9.92
2023-01-28T01:53:18.798Z,9.85
2023-01-28T01:58:27.207Z,9.71
2023-01-28T02:03:36.504Z,9.19
2023-01-28T02:08:44.916Z,9.87
2023-01-28T02:13:56.933Z,10.14
2023-01-28T02:19:03.058Z,10.17
2023-01-28T02:24:11.840Z,10.47
2023-01-28T02:29:20.824Z,10.26
2023-01-28T02:34:30.151Z,10.35
2023-01-28T02:39:38.827Z,9.71
2023-01-28T02:44:47.765Z,10.61
2023-01-28T02:49:57.094Z,10.32
2023-01-28T02:55:06.150Z,10.16
2023-01-28T03:00:14.582Z,9.60
2023-01-28T03:05:23.435Z,9.42
2023-01-28T03:10:32.144Z,9.34
2023-01-28T03:15:41.601Z,9.15
2023-01-28T03:20:50.234Z,8.83
2023-01-28T03:25:59.204Z,9.01
2023-01-28T03:31:08.668Z,8.87
2023-01-28T03:36:17.685Z,9.22
2023-01-28T03:41:26.215Z,9.18
2023-01-28T03:46:35.551Z,8.71
2023-01-28T03:51:44.676Z,9.39
2023-01-28T03:56:53.706Z,9.10
2023-01-28T04:02:03.137Z,9.60
2023-01-28T04:07:11.851Z,8.99
2023-01-28T04:12:20.880Z,9.07
2023-01-28T04:17:30.054Z,9.36
2023-01-28T04:22:38.454Z,9.05
2023-01-28T04:27:48.167Z,9.36
2023-01-28T04:32:56.810Z,9.70
2023-01-28T04:38:05.660Z,9.45
2023-01-28T04:43:14.274Z,8.93
2023-01-28T04:48:23.219Z,9.98
2023-01-28T04:53:32.095Z,10.60
2023-01-28T04:58:41.356Z,12.14
2023-01-28T05:03:50.168Z,11.38
2023-01-28T05:08:58.744Z,10.52
2023-01-28T05:14:07.511Z,10.06
2023-01-28T05:19:16.510Z,10.28
2023-01-28T05:24:25.057Z,10.54
2023-01-28T05:29:34.176Z,11.28
2023-01-28T05:34:42.965Z,12.77
2023-01-28T05:39:51.990Z,12.88
2023-01-28T05:45:00.526Z,11.12
2023-01-28T05:50:09.758Z,11.10
2023-01-28T05:55:20.719Z,11.88
2023-01-28T06:00:27.065Z,12.14
2023-01-28T06:05:36.289Z,12.19
2023-01-28T06:10:45.354Z,12.63
2023-01-28T06:15:57.587Z,12.26
2023-01-28T06:20:56.896Z,11.77
2023-01-28T06:26:05.737Z,14.50
2023-01-28T06:31:14.680Z,14.09
2023-01-28T06:36:23.429Z,13.23
2023-01-28T06:41:32.840Z,13.34
2023-01-28T06:46:41.756Z,13.16
2023-01-28T06:51:51.285Z,16.14
2023-01-28T06:56:59.700Z,17.04
2023-01-28T07:02:09.311Z,20.57
2023-01-28T07:07:18.371Z,23.31
2023-01-28T07:12:27.700Z,28.78
2023-01-28T07:17:36.654Z,27.46
2023-01-28T07:22:45.515Z,26.50
2023-01-28T07:27:53.891Z,25.82
2023-01-28T07:33:03.532Z,37.01
2023-01-28T07:38:12.369Z,20.17
2023-01-28T07:43:21.525Z,19.67
2023-01-28T07:48:30.996Z,19.51
2023-01-28T07:53:39.984Z,18.63
2023-01-28T07:58:48.767Z,17.14
2023-01-28T08:03:57.677Z,22.72
2023-01-28T08:09:06.447Z,20.55
2023-01-28T08:14:15.741Z,15.90
2023-01-28T08:19:24.656Z,20.95
2023-01-28T08:24:33.748Z,26.65
2023-01-28T08:29:42.431Z,19.42
2023-01-28T08:34:51.315Z,15.49
2023-01-28T08:39:59.994Z,15.77
2023-01-28T08:45:09.356Z,22.48
2023-01-28T08:50:18.715Z,14.42
2023-01-28T08:55:27.634Z,10.80
2023-01-28T09:00:36.319Z,10.32
2023-01-28T09:05:44.980Z,10.40
2023-01-28T09:10:54.095Z,10.03
2023-01-28T09:16:03.822Z,13.43
2023-01-28T09:21:12.752Z,11.29
2023-01-28T09:26:21.894Z,12.82
2023-01-28T09:31:31.406Z,10.93
2023-01-28T09:36:41.005Z,10.63
2023-01-28T09:41:49.538Z,10.25
2023-01-28T09:46:59.077Z,9.96
2023-01-28T09:52:07.549Z,10.69
2023-01-28T09:57:16.851Z,10.01
2023-01-28T10:02:25.571Z,9.36
2023-01-28T10:07:34.712Z,9.48
2023-01-28T10:12:43.431Z,9.22
2023-01-28T10:18:03.871Z,23.72
2023-01-28T10:23:01.462Z,9.25
2023-01-28T10:28:10.540Z,9.45
2023-01-28T10:33:19.074Z,9.24
2023-01-28T10:38:27.859Z,9.83
2023-01-28T10:43:36.674Z,14.62
2023-01-28T10:48:45.535Z,10.70
2023-01-28T10:53:54.175Z,8.60
2023-01-28T10:59:03.227Z,9.08
2023-01-28T11:04:12.001Z,9.59
2023-01-28T11:09:21.208Z,10.22
2023-01-28T11:14:29.688Z,11.73
2023-01-28T11:19:39.118Z,11.52
2023-01-28T11:24:47.377Z,12.66
2023-01-28T11:29:56.325Z,12.57
2023-01-28T11:35:05.088Z,11.31
2023-01-28T11:40:14.525Z,10.05
2023-01-28T11:45:22.498Z,10.66
2023-01-28T11:50:31.681Z,11.93
2023-01-28T11:55:39.912Z,10.49
2023-01-28T12:00:49.095Z,10.32
2023-01-28T12:05:57.665Z,10.06
2023-01-28T12:11:06.642Z,10.75
2023-01-28T12:16:15.209Z,10.47
2023-01-28T12:21:24.035Z,10.85
2023-01-28T12:26:32.706Z,11.22
2023-01-28T12:31:41.844Z,11.54
2023-01-28T12:36:50.378Z,10.88
2023-01-28T12:41:59.496Z,11.58
2023-01-28T12:47:08.389Z,11.02
2023-01-28T12:52:17.804Z,13.37
2023-01-28T12:57:26.371Z,12.35
2023-01-28T13:02:36.133Z,13.75
2023-01-28T13:07:45.130Z,13.72
2023-01-28T13:12:54.514Z,13.13
2023-01-28T13:18:03.489Z,13.84
2023-01-28T13:23:12.928Z,13.05
2023-01-28T13:28:21.452Z,12.74
2023-01-28T13:33:30.605Z,13.94
2023-01-28T13:38:39.106Z,14.51
2023-01-28T13:43:47.831Z,13.57
2023-01-28T13:48:56.515Z,15.70
2023-01-28T13:54:05.964Z,15.04
2023-01-28T13:59:14.685Z,15.80
2023-01-28T14:04:23.923Z,15.90
2023-01-28T14:09:32.848Z,16.58
2023-01-28T14:14:42.113Z,15.55
2023-01-28T14:19:50.446Z,15.28
2023-01-28T14:24:59.824Z,15.29
2023-01-28T14:30:08.424Z,15.17
2023-01-28T14:35:17.480Z,15.10
2023-01-28T14:40:26.463Z,15.23
2023-01-28T14:45:35.622Z,15.16
2023-01-28T14:50:44.132Z,15.06
2023-01-28T14:55:52.987Z,15.17
2023-01-28T15:01:01.656Z,14.96
2023-01-28T15:06:10.984Z,14.69
2023-01-28T15:11:19.543Z,14.74
2023-01-28T15:16:28.636Z,14.41
2023-01-28T15:21:37.663Z,14.19
2023-01-28T15:26:46.586Z,14.11
2023-01-28T15:31:55.713Z,13.72
2023-01-28T15:37:05.185Z,13.17
2023-01-28T15:42:13.931Z,13.38
2023-01-28T15:47:23.584Z,13.12
2023-01-28T15:52:32.309Z,13.42
2023-01-28T15:57:41.504Z,12.64
2023-01-28T16:02:50.327Z,13.56
2023-01-28T16:07:59.430Z,13.50
2023-01-28T16:13:07.903Z,13.96
2023-01-28T16:18:17.300Z,13.71
2023-01-28T16:23:26.104Z,13.93
2023-01-28T16:28:35.061Z,14.20
2023-01-28T16:33:43.581Z,13.43
2023-01-28T16:38:52.692Z,13.92
2023-01-28T16:44:01.292Z,14.49
2023-01-28T16:49:10.309Z,13.45
2023-01-28T16:54:19.326Z,13.63
2023-01-28T16:59:28.962Z,14.09
2023-01-28T17:04:37.273Z,13.75
2023-01-28T17:09:46.423Z,13.26
2023-01-28T17:14:54.896Z,13.05
2023-01-28T17:20:04.363Z,13.51
2023-01-28T17:25:13.054Z,13.18
2023-01-28T17:30:22.460Z,13.41
2023-01-28T17:35:31.277Z,14.07
2023-01-28T17:40:39.954Z,13.69
2023-01-28T17:45:49.017Z,13.13
2023-01-28T17:50:58.105Z,12.49
2023-01-28T17:56:07.670Z,13.43
2023-01-28T18:01:17.091Z,12.83
2023-01-28T18:06:25.796Z,12.87
2023-01-28T18:11:35.314Z,13.29
2023-01-28T18:16:44.099Z,13.25
2023-01-28T18:21:53.683Z,13.85
2023-01-28T18:27:01.708Z,14.75
2023-01-28T18:32:11.421Z,14.17
2023-01-28T18:37:20.437Z,13.99
2023-01-28T18:42:29.524Z,17.53
2023-01-28T18:47:39.081Z,15.70
2023-01-28T18:52:48.142Z,17.11
2023-01-28T18:57:56.924Z,15.33
2023-01-28T19:03:05.654Z,14.21
2023-01-28T19:08:14.700Z,13.84
2023-01-28T19:13:24.340Z,14.80
2023-01-28T19:18:33.120Z,16.10
2023-01-28T19:23:49.912Z,17.65
2023-01-28T19:28:50.224Z,16.41
2023-01-28T19:33:59.434Z,17.61
2023-01-28T19:39:08.716Z,17.53
2023-01-28T19:44:18.091Z,17.42
2023-01-28T19:49:27.405Z,19.35
2023-01-28T19:54:37.371Z,18.09
2023-01-28T19:59:46.933Z,20.63
2023-01-28T20:05:00.878Z,17.61
2023-01-28T20:10:04.841Z,15.93
2023-01-28T20:15:14.305Z,15.19
2023-01-28T20:20:21.917Z,14.82
2023-01-28T20:25:30.756Z,14.22
2023-01-28T20:30:39.689Z,13.47
2023-01-28T20:35:49.438Z,14.13
2023-01-28T20:40:58.754Z,13.62
2023-01-28T20:46:07.998Z,13.39
2023-01-28T20:51:16.701Z,13.94
2023-01-28T20:56:26.066Z,13.76
2023-01-28T21:01:35.328Z,13.74
2023-01-28T21:06:44.243Z,13.55
2023-01-28T21:11:53.792Z,13.40
2023-01-28T21:17:03.188Z,13.22
2023-01-28T21:22:12.056Z,13.00
2023-01-28T21:27:21.664Z,13.20
2023-01-28T21:32:30.709Z,13.21
2023-01-28T21:37:39.869Z,13.19
2023-01-28T21:42:48.508Z,12.93
2023-01-28T21:47:57.669Z,12.68
2023-01-28T21:53:06.522Z,12.26
2023-01-28T21:58:15.838Z,13.23
2023-01-28T22:03:24.601Z,13.26
2023-01-28T22:08:33.974Z,12.32
2023-01-28T22:13:43.538Z,12.19
2023-01-28T22:18:53.238Z,12.28
2023-01-28T22:24:01.828Z,11.97
2023-01-28T22:29:10.941Z,11.67
2023-01-28T22:34:19.403Z,12.11
2023-01-28T22:39:28.584Z,12.23
2023-01-28T22:44:37.474Z,12.24
2023-01-28T22:49:47.185Z,11.93
2023-01-28T22:54:56.905Z,11.45
2023-01-28T23:00:06.062Z,11.27
2023-01-28T23:05:14.729Z,10.89
2023-01-28T23:10:23.865Z,12.98
2023-01-28T23:15:33.171Z,10.67
2023-01-28T23:20:42.235Z,10.42
2023-01-28T23:25:51.170Z,11.05
2023-01-28T23:31:00.171Z,10.54
2023-01-28T23:36:08.533Z,10.57
2023-01-28T23:41:17.373Z,10.50
2023-01-28T23:46:38.576Z,9.67
2023-01-28T23:51:34.198Z,10.21
2023-01-28T23:56:43.217Z,9.47
